首页
METAR-TAF:

METAR-TAF

机场 :

弗拉格斯塔夫, 亞利桑那州, 美国

纬度: 35-08-25N, 经度: 111-40-20W, 海拔: 2137米

当前天气观测

该预报发布于57分钟前的03:57 UTC
风速3节,风向西
温度 13°C
湿度 24%
气压 1021 hPa
能見度: 16.1公里
天空无云

METAR: KFLG 190357Z 26003KT 10SM CLR 13/M07 A3015 RMK AO2 SLP114 T01331067

时间: 21:54 (04:54 UTC)

预报

该预报发布于52分钟前的04:02 UTC
预报有效从19日的 04点(UTC)到 19日的 24点(UTC)
风速3节,风向多变
能見度: 10公里
天空无云
从 19日的 1600点(UTC)
风速10节,风向西南,有时为20节阵风
能見度: 10公里
天空无云
从 19日的 1800点(UTC)
风速15节,风向西南,有时为26节阵风
能見度: 10公里
天空无云

TAF: KFLG 190402Z 1904/1924 VRB03KT P6SM SKC FM191600 22010G20KT P6SM SKC FM191800 22015G26KT P6SM SKC

超过4000个机场的气象观测和天气预报(METAR&TAF报告)。

可查询的气象台以黄色和红色小点在地图上表示。

将鼠标移到小点上方,可查看气象台名称。

然后点击查看天气观测和预报。

如需切换地图:点击带黑十字的绿色按钮放大地图;点击带横线的绿色按钮缩小地图;或者点击绿色箭头查看邻近地区的地图。


METAR-TAF: